Time;durP1;ratioP1;P1;durP2;ratioP2;P2;SDS_P1;SDS_P2;PMS_P1;PMS_P2;Temp;Humidity;BMP_temperature;BMP_pressure;BME280_temperature;BME280_humidity;BME280_pressure;Samples;Min_cycle;Max_cycle;Signal;HPM_P1;HPM_P2
2021/04/07 00:01:44;;;;;;;6.60;1.70;;;;;;;;;;5075001;28;20398;-70
2021/04/07 00:04:10;;;;;;;8.77;1.90;;;;;;;;;;5085799;28;20792;-70
2021/04/07 00:06:39;;;;;;;6.38;1.77;;;;;;;;;;5084552;28;20478;-70
2021/04/07 00:09:05;;;;;;;8.32;1.80;;;;;;;;;;5081534;28;20903;-70
2021/04/07 00:11:31;;;;;;;6.25;1.88;;;;;;;;;;5086019;28;20436;-70
2021/04/07 00:13:58;;;;;;;7.90;2.10;;;;;;;;;;5086810;28;20409;-70
2021/04/07 00:16:24;;;;;;;6.72;1.90;;;;;;;;;;5084289;28;20408;-71
2021/04/07 00:18:51;;;;;;;10.52;2.40;;;;;;;;;;5085891;28;22566;-70
2021/04/07 00:21:17;;;;;;;8.98;2.03;;;;;;;;;;5084279;28;20494;-70
2021/04/07 00:23:44;;;;;;;10.63;2.40;;;;;;;;;;5069286;28;20405;-70
2021/04/07 00:26:10;;;;;;;11.07;2.40;;;;;;;;;;5078411;28;20442;-70
2021/04/07 00:28:36;;;;;;;9.15;2.20;;;;;;;;;;5067071;28;20956;-70
2021/04/07 00:31:02;;;;;;;12.57;3.13;;;;;;;;;;5075441;28;20892;-70
2021/04/07 00:33:28;;;;;;;9.27;2.30;;;;;;;;;;5085953;28;20900;-70
2021/04/07 00:35:54;;;;;;;7.32;1.92;;;;;;;;;;5086112;28;20398;-70
2021/04/07 00:38:20;;;;;;;8.70;2.17;;;;;;;;;;5086845;28;20382;-71
2021/04/07 00:40:46;;;;;;;10.55;2.55;;;;;;;;;;5061429;28;20411;-70
2021/04/07 00:43:12;;;;;;;10.75;2.28;;;;;;;;;;5067720;28;20403;-70
2021/04/07 00:45:38;;;;;;;11.40;2.80;;;;;;;;;;5085531;28;20435;-70
2021/04/07 00:48:04;;;;;;;11.05;2.40;;;;;;;;;;5081607;28;20409;-70
2021/04/07 00:50:31;;;;;;;12.60;2.60;;;;;;;;;;5085828;28;20433;-70
2021/04/07 00:52:57;;;;;;;9.70;2.50;;;;;;;;;;5086015;28;20389;-70
2021/04/07 00:55:25;;;;;;;8.60;2.92;;;;;;;;;;5074076;28;20402;-70
2021/04/07 00:57:51;;;;;;;11.70;3.08;;;;;;;;;;5067381;28;20394;-70
2021/04/07 01:00:18;;;;;;;15.00;3.20;;;;;;;;;;5083319;28;20425;-72
2021/04/07 01:02:45;;;;;;;11.82;2.92;;;;;;;;;;5084275;28;20397;-71
2021/04/07 01:05:11;;;;;;;9.45;2.72;;;;;;;;;;5069162;28;20391;-71
2021/04/07 01:07:37;;;;;;;8.07;2.47;;;;;;;;;;5068123;28;21460;-71
2021/04/07 01:10:07;;;;;;;13.18;2.90;;;;;;;;;;5087383;28;20921;-71
2021/04/07 01:12:33;;;;;;;9.05;2.55;;;;;;;;;;5088033;28;20465;-71
2021/04/07 01:14:59;;;;;;;9.38;2.45;;;;;;;;;;5089386;28;20378;-72
2021/04/07 01:17:25;;;;;;;10.05;2.83;;;;;;;;;;5080814;28;20440;-72
2021/04/07 01:19:51;;;;;;;9.68;2.78;;;;;;;;;;5080301;28;20437;-72
2021/04/07 01:22:19;;;;;;;12.68;3.08;;;;;;;;;;5088801;28;20393;-72
2021/04/07 01:24:45;;;;;;;10.27;2.80;;;;;;;;;;5084003;28;20399;-73
2021/04/07 01:27:11;;;;;;;12.40;3.13;;;;;;;;;;5081651;28;20456;-72
2021/04/07 01:29:37;;;;;;;13.43;2.67;;;;;;;;;;5089482;28;20382;-72
2021/04/07 01:32:03;;;;;;;9.85;2.47;;;;;;;;;;5087963;28;20443;-72
2021/04/07 01:34:31;;;;;;;9.40;2.95;;;;;;;;;;5089466;28;21173;-72
2021/04/07 01:36:58;;;;;;;10.07;2.40;;;;;;;;;;5088016;28;20430;-72
2021/04/07 01:39:25;;;;;;;9.75;2.15;;;;;;;;;;5070789;28;20395;-71
2021/04/07 01:41:51;;;;;;;10.13;2.47;;;;;;;;;;5081708;28;20594;-72
2021/04/07 01:44:18;;;;;;;7.50;2.22;;;;;;;;;;5069570;28;20728;-72
2021/04/07 01:46:45;;;;;;;7.47;2.25;;;;;;;;;;5087756;28;20416;-71
2021/04/07 01:49:11;;;;;;;8.85;2.20;;;;;;;;;;5074016;28;20459;-71
2021/04/07 01:51:38;;;;;;;8.77;2.28;;;;;;;;;;5082117;28;20923;-72
2021/04/07 01:54:09;;;;;;;7.47;2.20;;;;;;;;;;5088190;28;20517;-72
2021/04/07 01:56:48;;;;;;;8.45;2.45;;;;;;;;;;5088286;28;20803;-71
2021/04/07 01:59:14;;;;;;;8.52;2.03;;;;;;;;;;5089015;28;20530;-72
2021/04/07 02:01:41;;;;;;;7.47;1.92;;;;;;;;;;5084461;28;20417;-72
2021/04/07 02:04:07;;;;;;;6.90;1.63;;;;;;;;;;5072079;28;20484;-71
2021/04/07 02:06:33;;;;;;;5.40;1.63;;;;;;;;;;5076995;28;20426;-72
2021/04/07 02:08:59;;;;;;;6.28;1.80;;;;;;;;;;5083041;28;20405;-72
2021/04/07 02:11:25;;;;;;;4.97;1.60;;;;;;;;;;5074283;28;20394;-73
2021/04/07 02:13:53;;;;;;;10.68;2.10;;;;;;;;;;5073893;28;20945;-72
2021/04/07 02:16:19;;;;;;;6.55;1.77;;;;;;;;;;5088632;28;20384;-72
2021/04/07 02:18:45;;;;;;;5.95;1.70;;;;;;;;;;5088145;28;20421;-72
2021/04/07 02:21:11;;;;;;;8.20;1.70;;;;;;;;;;5087773;28;20374;-72
2021/04/07 02:23:38;;;;;;;5.85;2.13;;;;;;;;;;5086884;28;20765;-72
2021/04/07 02:26:05;;;;;;;6.25;1.60;;;;;;;;;;5088097;28;20397;-72
2021/04/07 02:28:31;;;;;;;7.40;1.80;;;;;;;;;;5083403;28;20425;-72
2021/04/07 02:30:57;;;;;;;7.43;1.73;;;;;;;;;;5079168;28;20895;-73
2021/04/07 02:33:23;;;;;;;5.65;1.33;;;;;;;;;;5081766;28;20414;-73
2021/04/07 02:35:49;;;;;;;6.15;1.58;;;;;;;;;;5082831;28;20393;-73
2021/04/07 02:38:15;;;;;;;4.90;1.40;;;;;;;;;;5086554;28;21047;-73
2021/04/07 02:40:41;;;;;;;7.15;1.60;;;;;;;;;;5069491;28;20398;-73
2021/04/07 02:43:07;;;;;;;6.35;1.70;;;;;;;;;;5088029;28;20475;-73
2021/04/07 02:45:33;;;;;;;4.85;1.45;;;;;;;;;;5079875;28;20427;-73
2021/04/07 02:47:59;;;;;;;4.93;1.50;;;;;;;;;;5077170;28;20450;-73
2021/04/07 02:50:26;;;;;;;6.18;1.33;;;;;;;;;;5069281;28;20427;-73
2021/04/07 02:52:52;;;;;;;4.30;1.20;;;;;;;;;;5050747;28;20751;-73
2021/04/07 02:55:17;;;;;;;3.42;1.45;;;;;;;;;;5084421;28;20412;-74
2021/04/07 02:57:44;;;;;;;4.38;1.35;;;;;;;;;;5080654;28;20403;-74
2021/04/07 03:00:10;;;;;;;6.30;1.77;;;;;;;;;;5067934;28;20857;-74
2021/04/07 03:02:36;;;;;;;3.95;1.45;;;;;;;;;;5085498;28;20397;-74
2021/04/07 03:05:03;;;;;;;4.65;1.30;;;;;;;;;;5087453;28;20752;-74
2021/04/07 03:07:29;;;;;;;6.40;1.58;;;;;;;;;;5086516;28;20426;-75
2021/04/07 03:09:55;;;;;;;4.30;1.38;;;;;;;;;;5079738;28;20449;-74
2021/04/07 03:12:21;;;;;;;4.28;1.30;;;;;;;;;;5086644;28;20389;-74
2021/04/07 03:14:47;;;;;;;5.10;1.52;;;;;;;;;;5086448;28;20405;-74
2021/04/07 03:17:13;;;;;;;4.30;1.30;;;;;;;;;;5084835;28;20398;-74
2021/04/07 03:19:39;;;;;;;3.65;1.45;;;;;;;;;;5083045;28;20384;-74
2021/04/07 03:22:05;;;;;;;4.15;1.55;;;;;;;;;;5081396;28;20725;-74
2021/04/07 03:24:31;;;;;;;3.92;1.40;;;;;;;;;;5086499;28;20382;-74
2021/04/07 03:26:57;;;;;;;6.20;1.80;;;;;;;;;;5064967;28;20431;-75
2021/04/07 03:29:23;;;;;;;5.73;1.77;;;;;;;;;;5086657;28;20516;-75
2021/04/07 03:31:49;;;;;;;5.30;1.80;;;;;;;;;;5067817;28;20624;-74
2021/04/07 03:34:15;;;;;;;4.88;1.98;;;;;;;;;;5069916;28;20435;-74
2021/04/07 03:36:41;;;;;;;6.03;1.90;;;;;;;;;;5076025;28;20389;-74
2021/04/07 03:39:07;;;;;;;7.15;2.33;;;;;;;;;;5085577;28;20406;-74
2021/04/07 03:41:33;;;;;;;6.43;2.20;;;;;;;;;;5080811;28;20393;-74
2021/04/07 03:43:58;;;;;;;7.35;2.53;;;;;;;;;;5076837;28;20404;-74
2021/04/07 03:46:24;;;;;;;6.22;2.28;;;;;;;;;;5085331;28;20394;-74
2021/04/07 03:48:50;;;;;;;5.32;2.20;;;;;;;;;;5084786;28;21168;-73
2021/04/07 03:51:16;;;;;;;7.70;2.63;;;;;;;;;;5079971;28;20398;-74
2021/04/07 03:53:43;;;;;;;6.10;2.30;;;;;;;;;;5073234;28;20399;-75
2021/04/07 03:56:09;;;;;;;7.03;2.33;;;;;;;;;;5071015;28;20523;-74
2021/04/07 03:58:35;;;;;;;6.68;1.90;;;;;;;;;;5078177;28;20924;-74
2021/04/07 04:01:01;;;;;;;6.57;2.10;;;;;;;;;;5089966;28;20854;-74
2021/04/07 04:03:27;;;;;;;8.65;2.55;;;;;;;;;;5086079;28;20420;-74
2021/04/07 04:05:53;;;;;;;5.53;1.98;;;;;;;;;;5086810;28;20389;-74
2021/04/07 04:08:19;;;;;;;5.97;1.90;;;;;;;;;;5073992;28;20421;-74
2021/04/07 04:10:45;;;;;;;7.32;1.88;;;;;;;;;;5086710;28;20473;-74
2021/04/07 04:13:11;;;;;;;4.95;2.03;;;;;;;;;;5071097;28;20392;-74
2021/04/07 04:15:37;;;;;;;5.90;2.00;;;;;;;;;;5067968;28;20714;-74
2021/04/07 04:18:08;;;;;;;6.85;2.15;;;;;;;;;;5079056;28;20436;-74
2021/04/07 04:20:34;;;;;;;7.07;2.10;;;;;;;;;;5070273;28;20430;-74
2021/04/07 04:23:00;;;;;;;6.15;2.25;;;;;;;;;;5085678;28;20401;-73
2021/04/07 04:25:26;;;;;;;6.50;2.20;;;;;;;;;;5055946;28;20776;-74
2021/04/07 04:27:52;;;;;;;5.15;2.03;;;;;;;;;;5059189;28;20508;-74
2021/04/07 04:30:19;;;;;;;7.23;2.47;;;;;;;;;;5084856;28;20706;-74
2021/04/07 04:32:45;;;;;;;6.25;2.45;;;;;;;;;;5085385;28;20432;-73
2021/04/07 04:35:11;;;;;;;5.72;2.35;;;;;;;;;;5085805;28;20397;-73
2021/04/07 04:37:38;;;;;;;7.60;2.10;;;;;;;;;;5082919;28;20488;-73
2021/04/07 04:40:04;;;;;;;6.85;2.25;;;;;;;;;;5086196;28;20476;-73
2021/04/07 04:42:30;;;;;;;5.57;2.00;;;;;;;;;;5087732;28;20397;-74
2021/04/07 04:44:56;;;;;;;6.45;2.35;;;;;;;;;;5087544;28;20394;-74
2021/04/07 04:47:24;;;;;;;4.32;1.67;;;;;;;;;;5086095;28;20524;-73
2021/04/07 04:49:50;;;;;;;6.57;1.70;;;;;;;;;;5086413;28;20393;-74
2021/04/07 04:52:16;;;;;;;4.50;1.60;;;;;;;;;;5088697;28;20393;-73
2021/04/07 04:54:42;;;;;;;5.63;1.60;;;;;;;;;;5071049;28;20414;-73
2021/04/07 04:57:08;;;;;;;6.20;1.65;;;;;;;;;;5090147;28;20454;-73
2021/04/07 04:59:34;;;;;;;4.33;1.53;;;;;;;;;;5080973;28;20470;-73
2021/04/07 05:02:00;;;;;;;4.70;1.30;;;;;;;;;;5074051;28;20388;-74
2021/04/07 05:04:26;;;;;;;5.60;1.67;;;;;;;;;;5086035;28;20765;-74
2021/04/07 05:06:52;;;;;;;5.82;1.90;;;;;;;;;;5087540;28;20445;-73
2021/04/07 05:09:18;;;;;;;7.47;1.92;;;;;;;;;;5075141;28;20433;-73
2021/04/07 05:11:44;;;;;;;4.35;1.67;;;;;;;;;;5090089;28;20389;-73
2021/04/07 05:14:10;;;;;;;6.60;1.90;;;;;;;;;;5085712;28;20394;-73
2021/04/07 05:16:36;;;;;;;7.13;2.10;;;;;;;;;;5089585;28;20386;-73
2021/04/07 05:19:02;;;;;;;5.38;1.90;;;;;;;;;;5086380;28;21956;-74
2021/04/07 05:21:28;;;;;;;6.97;2.42;;;;;;;;;;5079700;28;20852;-73
2021/04/07 05:23:54;;;;;;;6.90;2.42;;;;;;;;;;5086792;28;20398;-73
2021/04/07 05:26:20;;;;;;;5.65;2.28;;;;;;;;;;5089484;28;20848;-73
2021/04/07 05:28:46;;;;;;;5.80;2.25;;;;;;;;;;5079716;28;20411;-73
2021/04/07 05:31:13;;;;;;;7.97;2.72;;;;;;;;;;5079797;28;20882;-73
2021/04/07 05:33:40;;;;;;;6.82;2.70;;;;;;;;;;5089384;28;20386;-72
2021/04/07 05:36:08;;;;;;;6.00;2.42;;;;;;;;;;5087924;28;20885;-72
2021/04/07 05:38:34;;;;;;;6.10;2.70;;;;;;;;;;5079405;28;20911;-72
2021/04/07 05:41:00;;;;;;;5.72;2.72;;;;;;;;;;5088840;28;20394;-72
2021/04/07 05:43:26;;;;;;;6.40;2.63;;;;;;;;;;5080968;28;20393;-72
2021/04/07 05:45:53;;;;;;;9.82;3.20;;;;;;;;;;5071469;28;20974;-72
2021/04/07 05:48:19;;;;;;;8.63;4.57;;;;;;;;;;5069958;28;20416;-72
2021/04/07 05:50:46;;;;;;;8.38;3.40;;;;;;;;;;5088915;28;20402;-72
2021/04/07 05:53:12;;;;;;;8.85;3.05;;;;;;;;;;5083585;28;20471;-72
2021/04/07 05:55:38;;;;;;;7.68;2.90;;;;;;;;;;5086146;28;21043;-72
2021/04/07 05:58:07;;;;;;;6.28;2.67;;;;;;;;;;5089617;28;20436;-72
2021/04/07 06:00:34;;;;;;;9.53;2.87;;;;;;;;;;5088843;28;20434;-72
2021/04/07 06:03:01;;;;;;;9.90;2.47;;;;;;;;;;5070389;28;20859;-73
2021/04/07 06:05:27;;;;;;;6.45;2.50;;;;;;;;;;5075982;28;20478;-72
2021/04/07 06:07:59;;;;;;;5.47;2.33;;;;;;;;;;5089217;28;20761;-72
2021/04/07 06:10:26;;;;;;;7.20;2.90;;;;;;;;;;5087115;28;20445;-72
2021/04/07 06:12:53;;;;;;;6.22;2.40;;;;;;;;;;5078782;28;20395;-73
2021/04/07 06:15:19;;;;;;;7.88;2.50;;;;;;;;;;5076412;28;20398;-73
2021/04/07 06:17:55;;;;;;;8.77;2.88;;;;;;;;;;5071956;28;20382;-73
2021/04/07 06:20:22;;;;;;;8.27;2.65;;;;;;;;;;5086303;28;20923;-72
2021/04/07 06:22:48;;;;;;;10.65;3.53;;;;;;;;;;5082259;28;20822;-73
2021/04/07 06:25:14;;;;;;;8.75;3.10;;;;;;;;;;5076984;28;20455;-72
2021/04/07 06:27:40;;;;;;;11.07;3.83;;;;;;;;;;5066205;28;20959;-73
2021/04/07 06:30:07;;;;;;;13.07;4.13;;;;;;;;;;5081187;28;20403;-73
2021/04/07 06:32:33;;;;;;;14.80;4.03;;;;;;;;;;5064501;28;20713;-74
2021/04/07 06:34:59;;;;;;;14.75;4.18;;;;;;;;;;5084718;28;20389;-73
2021/04/07 06:37:25;;;;;;;14.85;4.55;;;;;;;;;;5083812;28;20449;-74
2021/04/07 06:39:51;;;;;;;13.17;4.17;;;;;;;;;;5083502;28;20458;-73
2021/04/07 06:42:17;;;;;;;10.98;3.58;;;;;;;;;;5080516;28;20399;-73
2021/04/07 06:44:44;;;;;;;11.52;3.92;;;;;;;;;;5082661;28;20440;-74
2021/04/07 06:47:11;;;;;;;12.35;3.50;;;;;;;;;;5078578;28;20423;-72
2021/04/07 06:49:40;;;;;;;17.27;4.57;;;;;;;;;;5078299;28;20409;-74
2021/04/07 06:52:06;;;;;;;14.75;4.22;;;;;;;;;;5078607;28;20905;-73
2021/04/07 06:54:33;;;;;;;14.30;4.43;;;;;;;;;;5076011;28;20457;-73
2021/04/07 06:56:59;;;;;;;16.02;3.72;;;;;;;;;;5077177;28;21143;-73
2021/04/07 06:59:27;;;;;;;15.82;4.35;;;;;;;;;;5077329;28;20463;-73
2021/04/07 07:01:53;;;;;;;17.03;4.27;;;;;;;;;;5079163;28;20426;-73
2021/04/07 07:04:19;;;;;;;19.30;5.35;;;;;;;;;;5095454;28;20448;-73
2021/04/07 07:06:47;;;;;;;18.53;4.47;;;;;;;;;;5084813;28;20915;-73
2021/04/07 07:09:13;;;;;;;19.35;4.00;;;;;;;;;;5056097;28;20907;-72
2021/04/07 07:11:39;;;;;;;15.50;3.95;;;;;;;;;;5079712;28;20402;-73
2021/04/07 07:14:05;;;;;;;19.00;3.88;;;;;;;;;;5075728;28;21730;-71
2021/04/07 07:16:31;;;;;;;16.98;4.07;;;;;;;;;;5060287;28;20394;-72
2021/04/07 07:18:57;;;;;;;19.60;4.40;;;;;;;;;;5083362;28;20439;-71
2021/04/07 07:21:25;;;;;;;19.00;3.97;;;;;;;;;;5065965;28;20961;-73
2021/04/07 07:23:51;;;;;;;17.45;3.78;;;;;;;;;;5084948;28;20807;-72
2021/04/07 07:26:18;;;;;;;20.23;3.90;;;;;;;;;;5086147;28;20501;-72
2021/04/07 07:28:46;;;;;;;19.52;4.07;;;;;;;;;;5079602;28;20466;-72
2021/04/07 07:31:24;;;;;;;16.25;3.58;;;;;;;;;;5074135;28;20416;-72
2021/04/07 07:33:51;;;;;;;17.70;3.97;;;;;;;;;;5080110;28;20452;-72
2021/04/07 07:36:17;;;;;;;18.52;4.55;;;;;;;;;;5078688;28;20396;-72
2021/04/07 07:38:53;;;;;;;17.63;4.35;;;;;;;;;;5083694;28;20394;-72
2021/04/07 07:41:20;;;;;;;21.08;4.40;;;;;;;;;;5086065;28;21123;-72
2021/04/07 07:43:46;;;;;;;24.53;5.37;;;;;;;;;;5078259;28;21140;-72
2021/04/07 07:46:14;;;;;;;24.70;5.18;;;;;;;;;;5085504;28;20406;-72
2021/04/07 07:48:40;;;;;;;27.92;5.45;;;;;;;;;;5085846;28;20924;-73
2021/04/07 07:51:23;;;;;;;22.35;5.15;;;;;;;;;;5075706;28;20391;-72
2021/04/07 07:53:51;;;;;;;29.83;5.75;;;;;;;;;;5083298;28;20382;-72
2021/04/07 07:56:19;;;;;;;23.73;5.57;;;;;;;;;;5071460;28;20387;-72
2021/04/07 07:58:46;;;;;;;24.05;5.32;;;;;;;;;;5067232;28;20429;-72
2021/04/07 08:01:15;;;;;;;21.10;4.88;;;;;;;;;;5075317;28;20418;-71
2021/04/07 08:03:45;;;;;;;22.73;5.57;;;;;;;;;;5077667;28;20399;-72
2021/04/07 08:06:11;;;;;;;26.48;5.85;;;;;;;;;;5075853;28;20859;-72
2021/04/07 08:08:37;;;;;;;18.75;5.47;;;;;;;;;;5078593;28;20991;-72
2021/04/07 08:11:04;;;;;;;22.00;5.25;;;;;;;;;;5076030;28;20504;-72
2021/04/07 08:13:35;;;;;;;25.27;6.23;;;;;;;;;;5074222;28;20407;-71
2021/04/07 08:16:01;;;;;;;24.70;5.97;;;;;;;;;;5077249;28;20441;-72
2021/04/07 08:18:27;;;;;;;26.70;6.95;;;;;;;;;;5081069;28;20873;-71
2021/04/07 08:20:54;;;;;;;30.77;7.00;;;;;;;;;;5076630;28;20390;-71
2021/04/07 08:23:22;;;;;;;31.98;6.95;;;;;;;;;;5058586;28;20393;-71
2021/04/07 08:25:52;;;;;;;33.40;6.88;;;;;;;;;;5079782;28;20394;-71
2021/04/07 08:28:18;;;;;;;30.88;7.28;;;;;;;;;;5071309;28;20414;-71
2021/04/07 08:30:44;;;;;;;30.20;6.63;;;;;;;;;;5079086;28;20398;-71
2021/04/07 08:33:10;;;;;;;32.75;7.15;;;;;;;;;;5073777;28;20961;-71
2021/04/07 08:35:36;;;;;;;34.17;7.60;;;;;;;;;;5075964;28;20390;-71
2021/04/07 08:38:04;;;;;;;38.58;8.68;;;;;;;;;;5078896;28;20887;-71
2021/04/07 08:40:37;;;;;;;30.70;7.90;;;;;;;;;;5077978;28;20429;-71
2021/04/07 08:43:03;;;;;;;31.90;7.05;;;;;;;;;;5076705;28;20401;-70
2021/04/07 08:45:36;;;;;;;29.52;6.38;;;;;;;;;;5077896;28;20447;-71
2021/04/07 08:48:07;;;;;;;24.30;5.95;;;;;;;;;;5076365;28;20422;-71
2021/04/07 08:50:33;;;;;;;25.45;5.80;;;;;;;;;;5075138;28;21224;-70
2021/04/07 08:52:59;;;;;;;27.17;6.00;;;;;;;;;;5077264;28;20434;-71
2021/04/07 08:55:27;;;;;;;29.27;6.50;;;;;;;;;;5078382;28;20414;-71
2021/04/07 08:58:00;;;;;;;32.47;7.07;;;;;;;;;;5087805;28;20397;-72
2021/04/07 09:00:27;;;;;;;36.63;7.68;;;;;;;;;;5084672;28;20366;-71
2021/04/07 09:02:58;;;;;;;32.95;7.70;;;;;;;;;;5087705;28;20395;-71
2021/04/07 09:05:34;;;;;;;33.95;8.27;;;;;;;;;;5074858;28;20402;-70
2021/04/07 09:08:01;;;;;;;30.85;7.78;;;;;;;;;;5077972;28;20424;-71
2021/04/07 09:10:39;;;;;;;33.70;7.57;;;;;;;;;;5076299;28;20390;-71
2021/04/07 09:13:06;;;;;;;31.35;7.13;;;;;;;;;;5079437;28;20696;-71
2021/04/07 09:15:33;;;;;;;25.58;6.25;;;;;;;;;;5079980;28;20400;-72
2021/04/07 09:17:59;;;;;;;21.15;4.97;;;;;;;;;;5076173;28;20759;-70
2021/04/07 09:20:45;;;;;;;21.23;4.72;;;;;;;;;;5076918;28;20417;-71
2021/04/07 09:23:17;;;;;;;16.37;3.87;;;;;;;;;;5079748;28;20394;-72
2021/04/07 09:25:47;;;;;;;18.30;4.07;;;;;;;;;;5076845;28;20412;-71
2021/04/07 09:28:13;;;;;;;19.35;3.97;;;;;;;;;;5078265;28;21148;-71
2021/04/07 09:30:47;;;;;;;12.32;3.20;;;;;;;;;;5080895;28;20512;-72
2021/04/07 09:33:18;;;;;;;17.97;3.50;;;;;;;;;;5085212;28;20930;-71
2021/04/07 09:36:00;;;;;;;15.63;3.95;;;;;;;;;;5082528;28;20419;-72
2021/04/07 09:38:30;;;;;;;15.10;3.20;;;;;;;;;;5088347;28;21188;-71
2021/04/07 09:41:07;;;;;;;12.50;3.30;;;;;;;;;;5086374;28;20372;-73
2021/04/07 09:43:33;;;;;;;11.23;2.78;;;;;;;;;;5082636;28;20443;-73
2021/04/07 09:46:00;;;;;;;10.80;2.60;;;;;;;;;;5089037;28;20490;-72
2021/04/07 09:48:45;;;;;;;10.50;2.63;;;;;;;;;;5086107;28;20508;-72
2021/04/07 09:51:38;;;;;;;12.50;2.90;;;;;;;;;;5078630;28;20394;-73
2021/04/07 09:54:15;;;;;;;18.67;3.85;;;;;;;;;;5061891;28;20427;-71
2021/04/07 09:56:48;;;;;;;16.15;4.05;;;;;;;;;;5083273;28;20431;-71
2021/04/07 09:59:14;;;;;;;20.45;4.05;;;;;;;;;;5083243;28;20705;-72
2021/04/07 10:01:41;;;;;;;18.73;4.55;;;;;;;;;;5088233;28;20780;-71
2021/04/07 10:04:08;;;;;;;23.73;5.63;;;;;;;;;;5090067;28;20386;-72
2021/04/07 10:06:34;;;;;;;29.35;5.90;;;;;;;;;;5087646;28;20390;-72
2021/04/07 10:09:05;;;;;;;26.73;6.22;;;;;;;;;;5089313;28;20421;-72
2021/04/07 10:11:32;;;;;;;28.70;6.57;;;;;;;;;;5089105;28;20398;-72
2021/04/07 10:13:59;;;;;;;26.92;5.78;;;;;;;;;;5086458;28;20406;-72
2021/04/07 10:16:35;;;;;;;26.05;6.32;;;;;;;;;;5085358;28;20559;-71
2021/04/07 10:19:05;;;;;;;28.83;5.72;;;;;;;;;;5085839;28;20418;-72
2021/04/07 10:21:31;;;;;;;25.65;5.70;;;;;;;;;;5078174;28;20875;-72
2021/04/07 10:24:01;;;;;;;25.65;5.75;;;;;;;;;;5083683;28;20895;-72
2021/04/07 10:26:28;;;;;;;24.20;5.57;;;;;;;;;;5081630;28;20435;-70
2021/04/07 10:28:58;;;;;;;15.73;4.23;;;;;;;;;;5079484;28;20488;-69
2021/04/07 10:31:33;;;;;;;21.38;5.35;;;;;;;;;;5078007;28;20391;-71
2021/04/07 10:34:06;;;;;;;17.48;4.32;;;;;;;;;;5077808;28;20390;-70
2021/04/07 10:36:35;;;;;;;20.92;4.82;;;;;;;;;;5077608;28;20410;-71
2021/04/07 10:39:15;;;;;;;20.42;5.05;;;;;;;;;;5076379;28;20394;-70
2021/04/07 10:41:49;;;;;;;21.27;4.67;;;;;;;;;;5085549;28;20427;-70
2021/04/07 10:44:29;;;;;;;19.60;4.90;;;;;;;;;;5082364;28;20391;-70
2021/04/07 10:47:02;;;;;;;25.38;5.40;;;;;;;;;;5073845;28;20394;-70
2021/04/07 10:49:28;;;;;;;21.58;5.28;;;;;;;;;;5074486;28;20431;-69
2021/04/07 10:52:06;;;;;;;22.02;5.93;;;;;;;;;;5082852;28;20366;-71
2021/04/07 10:54:32;;;;;;;22.73;5.57;;;;;;;;;;5084551;28;20473;-72
2021/04/07 10:57:02;;;;;;;25.37;6.10;;;;;;;;;;5082546;28;20489;-71
2021/04/07 10:59:29;;;;;;;29.63;6.68;;;;;;;;;;5083975;28;20398;-70
2021/04/07 11:01:55;;;;;;;28.70;6.28;;;;;;;;;;5081410;28;20480;-70
2021/04/07 11:04:21;;;;;;;25.92;5.88;;;;;;;;;;5077351;28;20878;-70
2021/04/07 11:06:51;;;;;;;29.10;6.97;;;;;;;;;;5084960;28;20394;-70
2021/04/07 11:09:23;;;;;;;27.30;6.50;;;;;;;;;;5082204;28;20398;-70
2021/04/07 11:11:50;;;;;;;30.38;6.43;;;;;;;;;;5085155;28;20394;-70
2021/04/07 11:14:16;;;;;;;24.23;6.18;;;;;;;;;;5084105;28;20390;-70
2021/04/07 11:16:42;;;;;;;18.73;4.57;;;;;;;;;;5079277;28;20425;-70
2021/04/07 11:19:15;;;;;;;22.80;5.45;;;;;;;;;;5073694;28;20443;-70
2021/04/07 11:21:41;;;;;;;23.45;5.30;;;;;;;;;;5077715;28;21131;-69
2021/04/07 11:24:07;;;;;;;19.67;4.68;;;;;;;;;;5074775;28;20497;-69
2021/04/07 11:26:33;;;;;;;24.13;5.15;;;;;;;;;;5074603;28;20602;-69
2021/04/07 11:28:59;;;;;;;16.50;4.18;;;;;;;;;;5074731;28;20944;-71
2021/04/07 11:31:29;;;;;;;20.02;4.38;;;;;;;;;;5076676;28;20414;-70
2021/04/07 11:33:59;;;;;;;16.38;3.97;;;;;;;;;;5083568;28;20378;-70
2021/04/07 11:39:00;;;;;;;21.48;4.78;;;;;;;;;;5083896;28;20454;-70
2021/04/07 11:46:38;;;;;;;17.40;4.07;;;;;;;;;;5083299;28;20390;-70
2021/04/07 11:49:05;;;;;;;15.82;4.50;;;;;;;;;;5079696;28;20510;-70
2021/04/07 11:51:39;;;;;;;17.20;4.05;;;;;;;;;;5084422;28;20386;-69
2021/04/07 11:54:06;;;;;;;18.92;4.55;;;;;;;;;;5081597;28;20398;-69
2021/04/07 11:56:32;;;;;;;21.77;4.97;;;;;;;;;;5081115;28;20838;-70
2021/04/07 11:58:58;;;;;;;21.00;4.90;;;;;;;;;;5078752;28;20479;-72
2021/04/07 12:01:25;;;;;;;21.67;5.15;;;;;;;;;;5084014;28;20402;-71
2021/04/07 12:03:51;;;;;;;23.05;5.28;;;;;;;;;;5078815;28;20459;-71
2021/04/07 12:06:17;;;;;;;27.13;5.32;;;;;;;;;;5075262;28;20374;-70
2021/04/07 12:08:43;;;;;;;31.43;5.93;;;;;;;;;;5085404;28;20949;-70
2021/04/07 12:11:09;;;;;;;20.60;4.80;;;;;;;;;;5077238;28;20387;-71
2021/04/07 12:13:35;;;;;;;25.35;5.18;;;;;;;;;;5061332;28;20401;-70
2021/04/07 12:16:01;;;;;;;18.77;4.78;;;;;;;;;;5076717;28;20457;-70
2021/04/07 12:18:26;;;;;;;20.40;5.20;;;;;;;;;;5077735;28;20439;-71
2021/04/07 12:20:54;;;;;;;21.95;5.03;;;;;;;;;;5078485;28;20406;-71
2021/04/07 12:23:20;;;;;;;23.45;4.80;;;;;;;;;;5063136;28;20411;-70
2021/04/07 12:25:46;;;;;;;17.77;4.32;;;;;;;;;;5078688;28;20468;-70
2021/04/07 12:28:12;;;;;;;18.27;4.80;;;;;;;;;;5077134;28;20419;-70
2021/04/07 12:30:48;;;;;;;16.48;4.45;;;;;;;;;;5078012;28;20910;-70
2021/04/07 12:33:15;;;;;;;20.75;4.60;;;;;;;;;;5077727;28;20880;-71
2021/04/07 12:35:41;;;;;;;18.88;4.97;;;;;;;;;;5059647;28;20728;-70
2021/04/07 12:38:07;;;;;;;18.52;5.07;;;;;;;;;;5079608;28;20700;-70
2021/04/07 12:40:33;;;;;;;17.88;4.43;;;;;;;;;;5086753;28;20848;-70
2021/04/07 12:42:59;;;;;;;20.38;4.68;;;;;;;;;;5091485;28;20482;-70
2021/04/07 12:45:25;;;;;;;17.15;4.25;;;;;;;;;;5086024;28;20394;-71
2021/04/07 12:47:51;;;;;;;26.65;5.32;;;;;;;;;;5079224;28;20418;-70
2021/04/07 12:50:17;;;;;;;25.83;5.10;;;;;;;;;;5057729;28;20416;-70
2021/04/07 12:52:43;;;;;;;19.70;4.85;;;;;;;;;;5082502;28;20736;-70
2021/04/07 12:55:09;;;;;;;17.13;4.72;;;;;;;;;;5084275;28;20386;-70
2021/04/07 12:57:36;;;;;;;17.00;3.80;;;;;;;;;;5078608;28;20397;-70
2021/04/07 13:00:03;;;;;;;15.80;3.90;;;;;;;;;;5081759;28;20455;-70
2021/04/07 13:02:29;;;;;;;15.77;3.58;;;;;;;;;;5086295;28;20527;-70
2021/04/07 13:04:55;;;;;;;14.93;3.22;;;;;;;;;;5090633;28;20373;-71
2021/04/07 13:07:21;;;;;;;15.82;3.53;;;;;;;;;;5088117;28;20445;-70
2021/04/07 13:09:50;;;;;;;17.98;4.15;;;;;;;;;;5088457;28;20941;-70
2021/04/07 13:12:16;;;;;;;16.70;3.85;;;;;;;;;;5078098;28;20871;-70
2021/04/07 13:14:42;;;;;;;16.95;3.80;;;;;;;;;;5085336;28;20462;-70
2021/04/07 13:17:10;;;;;;;19.13;4.00;;;;;;;;;;5087379;28;20460;-70
2021/04/07 13:19:36;;;;;;;20.43;4.47;;;;;;;;;;5087479;28;20502;-70
2021/04/07 13:22:02;;;;;;;18.02;4.40;;;;;;;;;;5084868;28;20389;-70
2021/04/07 13:24:28;;;;;;;15.35;3.83;;;;;;;;;;5067369;28;20434;-69
2021/04/07 13:26:56;;;;;;;23.15;4.10;;;;;;;;;;5086638;28;20852;-70
2021/04/07 13:29:22;;;;;;;14.35;3.70;;;;;;;;;;5081935;28;20406;-71
2021/04/07 13:31:48;;;;;;;15.20;3.55;;;;;;;;;;5086178;28;20382;-70
2021/04/07 13:34:25;;;;;;;16.95;3.65;;;;;;;;;;5088520;28;20458;-70
2021/04/07 13:37:03;;;;;;;14.52;3.30;;;;;;;;;;5079327;28;20380;-70
2021/04/07 13:39:39;;;;;;;15.68;3.78;;;;;;;;;;5084115;28;20392;-70
2021/04/07 13:42:42;;;;;;;14.10;3.50;;;;;;;;;;5090239;28;20389;-70
2021/04/07 13:44:54;;;;;;;13.95;3.55;;;;;;;;;;5077357;28;20534;-70
2021/04/07 13:47:22;;;;;;;15.75;3.25;;;;;;;;;;5085504;28;20526;-70
2021/04/07 13:49:49;;;;;;;15.60;3.20;;;;;;;;;;5087755;28;21032;-70
2021/04/07 13:52:15;;;;;;;10.20;2.85;;;;;;;;;;5083588;28;20875;-70
2021/04/07 13:54:43;;;;;;;13.65;3.20;;;;;;;;;;5080456;28;20996;-70
2021/04/07 13:57:28;;;;;;;12.30;2.85;;;;;;;;;;5079017;28;20396;-70
2021/04/07 13:59:55;;;;;;;14.20;3.03;;;;;;;;;;5080274;28;20414;-70
2021/04/07 14:02:21;;;;;;;13.52;3.13;;;;;;;;;;5085033;28;20892;-70
2021/04/07 14:04:48;;;;;;;12.43;3.05;;;;;;;;;;5080191;28;20402;-71
2021/04/07 14:07:16;;;;;;;11.82;3.00;;;;;;;;;;5076437;28;20456;-69
2021/04/07 14:09:42;;;;;;;12.38;3.10;;;;;;;;;;5081373;28;20397;-70
2021/04/07 14:12:08;;;;;;;13.07;3.30;;;;;;;;;;5080141;28;20392;-70
2021/04/07 14:14:34;;;;;;;13.07;3.13;;;;;;;;;;5080814;28;20406;-70
2021/04/07 14:17:00;;;;;;;13.13;3.05;;;;;;;;;;5059633;28;20394;-72
2021/04/07 14:19:26;;;;;;;14.52;3.22;;;;;;;;;;5077630;28;20406;-72
2021/04/07 14:21:52;;;;;;;11.87;2.70;;;;;;;;;;5079325;28;20500;-70
2021/04/07 14:24:18;;;;;;;14.38;3.33;;;;;;;;;;5079031;28;21241;-71
2021/04/07 14:26:44;;;;;;;16.08;3.88;;;;;;;;;;5081296;28;20390;-69
2021/04/07 14:29:10;;;;;;;18.20;4.07;;;;;;;;;;5080961;28;20435;-69
2021/04/07 14:31:36;;;;;;;16.52;3.88;;;;;;;;;;5081165;28;20403;-70
2021/04/07 14:34:05;;;;;;;11.38;3.13;;;;;;;;;;5076013;28;20400;-70
2021/04/07 14:36:31;;;;;;;14.90;3.55;;;;;;;;;;5081638;28;20406;-69
2021/04/07 14:38:57;;;;;;;12.48;3.30;;;;;;;;;;5083805;28;20381;-69
2021/04/07 14:41:23;;;;;;;11.37;2.77;;;;;;;;;;5080325;28;20888;-70
2021/04/07 14:43:49;;;;;;;10.15;2.50;;;;;;;;;;5081165;28;20403;-69
2021/04/07 14:46:15;;;;;;;8.80;2.22;;;;;;;;;;5077738;28;20394;-69